Martin Challenger — WDB2346 — position and weather

sailwx.info

Track history (hours):
 
Tides and Currents Weather Stations Pressure Air Temp Water Temp Dewpoint Dewpoint Depression Visibility Wind Speed Wind Dir Waves Ship Positions

Martin Challenger

Owner: MARTIN OPERATING PARTNERSHIP LP, VIDOR, TX. More information available from US FCC via Universal Licensing System and Coast Guard Vessel Documentation Center.

Last reported at 2015-Aug-31 22:09 UTC. Time now 2015-Sep-01 04:00 UTC.
Position N 29°47' W 095°06'.

Length 20 m; draft 2.9 m.

MMSI: 366874920.

Date/timePositionNaut miles runAvg speedWind from/ knotsBaromVisibWave heightAir tempDewpointWater temp
2015-Aug-31 22:09N 29°47' W 095°06'0 0.0
2015-Aug-31 21:30N 29°47' W 095°06'0 0.0
2015-Aug-31 20:31N 29°47' W 095°06'1 1.2
2015-Aug-31 19:32N 29°47' W 095°04'1 0.1
2015-Aug-31 13:30N 29°47' W 095°04'1 0.1
2015-Aug-30 12:33N 29°46' W 095°05'0 0.0
2015-Aug-30 10:25N 29°46' W 095°05'1 0.2
2015-Aug-30 06:27N 29°46' W 095°04'4 4.5
2015-Aug-30 05:33N 29°43' W 095°01'5 4.5
2015-Aug-30 04:33N 29°39' W 094°58'5 5.3
2015-Aug-30 03:33N 29°34' W 094°55'12 0.5
2015-Aug-29 04:05N 29°23' W 094°53'6 0.5
2015-Aug-28 15:17N 29°29' W 094°52'4 5.6
2015-Aug-28 14:34N 29°32' W 094°54'6 5.6
2015-Aug-28 13:34N 29°37' W 094°57'5 5.3
2015-Aug-28 12:33N 29°42' W 095°00'3 3.2
2015-Aug-28 11:33N 29°44' W 095°03'0 0.0
2015-Aug-28 10:33N 29°44' W 095°03'0 0.0
2015-Aug-28 09:33N 29°44' W 095°03'0 0.0
2015-Aug-28 08:33N 29°44' W 095°03'0 0.0
2015-Aug-28 07:34N 29°44' W 095°03'0 0.0
2015-Aug-28 06:34N 29°44' W 095°03'0 0.0
2015-Aug-28 05:33N 29°44' W 095°03'0 0.0
2015-Aug-28 04:34N 29°44' W 095°03'0 0.0
2015-Aug-28 03:33N 29°44' W 095°03'0 0.0
2015-Aug-28 02:34N 29°44' W 095°03'0 0.0
2015-Aug-28 01:33N 29°44' W 095°03'0 0.0
2015-Aug-28 00:33N 29°44' W 095°03'0 0.0
2015-Aug-27 23:31N 29°44' W 095°03'0 0.0
2015-Aug-27 22:28N 29°44' W 095°03'0 0.0
2015-Aug-27 21:33N 29°44' W 095°03'0 0.0
2015-Aug-27 20:34N 29°44' W 095°03'0 0.0
2015-Aug-27 19:30N 29°44' W 095°03'0 0.0
2015-Aug-27 18:33N 29°44' W 095°03'0 0.0
2015-Aug-27 17:33N 29°44' W 095°03'0 0.0
2015-Aug-27 16:33N 29°44' W 095°03'0 0.0
2015-Aug-27 15:33N 29°44' W 095°03'0 0.0
2015-Aug-27 14:34N 29°44' W 095°03'0 0.0
2015-Aug-27 13:33N 29°44' W 095°03'0 0.0
2015-Aug-27 12:33N 29°44' W 095°03'0 0.0
2015-Aug-27 11:34N 29°44' W 095°03'0 0.0
2015-Aug-27 10:33N 29°44' W 095°03'0 0.0
2015-Aug-27 09:33N 29°44' W 095°03'0 0.0
2015-Aug-27 08:33N 29°44' W 095°03'0 0.0
2015-Aug-27 07:33N 29°44' W 095°03'0 0.0
2015-Aug-27 06:32N 29°44' W 095°03'0 0.0
2015-Aug-27 05:33N 29°44' W 095°03'0 0.3
2015-Aug-27 04:33N 29°44' W 095°03'3 1.6
2015-Aug-27 02:32N 29°47' W 095°04'0 0.0
2015-Aug-27 01:32N 29°47' W 095°04'0 0.0
2015-Aug-27 00:17N 29°47' W 095°04'1 2.0
2015-Aug-26 23:33N 29°46' W 095°05'  
2015-Aug-24 01:33N 29°47' W 095°04'1 0.3
2015-Aug-23 22:30N 29°46' W 095°05'0 0.0
2015-Aug-23 19:32N 29°46' W 095°05'0 0.0
2015-Aug-23 18:33N 29°46' W 095°05'0 0.0
2015-Aug-23 17:19N 29°46' W 095°05'0 0.0
2015-Aug-23 14:28N 29°46' W 095°05'0 0.0
2015-Aug-23 11:23N 29°46' W 095°05'0 0.0
2015-Aug-23 09:13N 29°46' W 095°05'0 0.0
2015-Aug-23 08:15N 29°46' W 095°05'0 0.0
2015-Aug-23 06:33N 29°46' W 095°05'0 0.1
2015-Aug-23 05:32N 29°46' W 095°05'4 4.2
2015-Aug-23 04:30N 29°43' W 095°01'4 4.4
2015-Aug-23 03:33N 29°40' W 094°58'5 5.4
2015-Aug-23 02:33N 29°35' W 094°56'  
Track history (hours):
 
Tides and Currents Weather Stations Pressure Air Temp Water Temp Dewpoint Dewpoint Depression Visibility Wind Speed Wind Dir Waves Ship Positions

Martin Challenger

Owner: MARTIN OPERATING PARTNERSHIP LP, VIDOR, TX. More information available from US FCC via Universal Licensing System and Coast Guard Vessel Documentation Center.

Last reported at 2015-Aug-31 22:09 UTC. Time now 2015-Sep-01 04:00 UTC.
Position N 29°47' W 095°06'.

Length 20 m; draft 2.9 m.

MMSI: 366874920.

Date/timePositionNaut miles runAvg speedWind from/ knotsBaromVisibWave heightAir tempDewpointWater temp
2015-Aug-31 22:09N 29°47' W 095°06'0 0.0
2015-Aug-31 21:30N 29°47' W 095°06'0 0.0
2015-Aug-31 20:31N 29°47' W 095°06'1 1.2
2015-Aug-31 19:32N 29°47' W 095°04'1 0.1
2015-Aug-31 13:30N 29°47' W 095°04'1 0.1
2015-Aug-30 12:33N 29°46' W 095°05'0 0.0
2015-Aug-30 10:25N 29°46' W 095°05'1 0.2
2015-Aug-30 06:27N 29°46' W 095°04'4 4.5
2015-Aug-30 05:33N 29°43' W 095°01'5 4.5
2015-Aug-30 04:33N 29°39' W 094°58'5 5.3
2015-Aug-30 03:33N 29°34' W 094°55'12 0.5
2015-Aug-29 04:05N 29°23' W 094°53'6 0.5
2015-Aug-28 15:17N 29°29' W 094°52'4 5.6
2015-Aug-28 14:34N 29°32' W 094°54'6 5.6
2015-Aug-28 13:34N 29°37' W 094°57'5 5.3
2015-Aug-28 12:33N 29°42' W 095°00'3 3.2
2015-Aug-28 11:33N 29°44' W 095°03'0 0.0
2015-Aug-28 10:33N 29°44' W 095°03'0 0.0
2015-Aug-28 09:33N 29°44' W 095°03'0 0.0
2015-Aug-28 08:33N 29°44' W 095°03'0 0.0
2015-Aug-28 07:34N 29°44' W 095°03'0 0.0
2015-Aug-28 06:34N 29°44' W 095°03'0 0.0
2015-Aug-28 05:33N 29°44' W 095°03'0 0.0
2015-Aug-28 04:34N 29°44' W 095°03'0 0.0
2015-Aug-28 03:33N 29°44' W 095°03'0 0.0
2015-Aug-28 02:34N 29°44' W 095°03'0 0.0
2015-Aug-28 01:33N 29°44' W 095°03'0 0.0
2015-Aug-28 00:33N 29°44' W 095°03'0 0.0
2015-Aug-27 23:31N 29°44' W 095°03'0 0.0
2015-Aug-27 22:28N 29°44' W 095°03'0 0.0
2015-Aug-27 21:33N 29°44' W 095°03'0 0.0
2015-Aug-27 20:34N 29°44' W 095°03'0 0.0
2015-Aug-27 19:30N 29°44' W 095°03'0 0.0
2015-Aug-27 18:33N 29°44' W 095°03'0 0.0
2015-Aug-27 17:33N 29°44' W 095°03'0 0.0
2015-Aug-27 16:33N 29°44' W 095°03'0 0.0
2015-Aug-27 15:33N 29°44' W 095°03'0 0.0
2015-Aug-27 14:34N 29°44' W 095°03'0 0.0
2015-Aug-27 13:33N 29°44' W 095°03'0 0.0
2015-Aug-27 12:33N 29°44' W 095°03'0 0.0
2015-Aug-27 11:34N 29°44' W 095°03'0 0.0
2015-Aug-27 10:33N 29°44' W 095°03'0 0.0
2015-Aug-27 09:33N 29°44' W 095°03'0 0.0
2015-Aug-27 08:33N 29°44' W 095°03'0 0.0
2015-Aug-27 07:33N 29°44' W 095°03'0 0.0
2015-Aug-27 06:32N 29°44' W 095°03'0 0.0
2015-Aug-27 05:33N 29°44' W 095°03'0 0.3
2015-Aug-27 04:33N 29°44' W 095°03'3 1.6
2015-Aug-27 02:32N 29°47' W 095°04'0 0.0
2015-Aug-27 01:32N 29°47' W 095°04'0 0.0
2015-Aug-27 00:17N 29°47' W 095°04'1 2.0
2015-Aug-26 23:33N 29°46' W 095°05'  
2015-Aug-24 01:33N 29°47' W 095°04'1 0.3
2015-Aug-23 22:30N 29°46' W 095°05'0 0.0
2015-Aug-23 19:32N 29°46' W 095°05'0 0.0
2015-Aug-23 18:33N 29°46' W 095°05'0 0.0
2015-Aug-23 17:19N 29°46' W 095°05'0 0.0
2015-Aug-23 14:28N 29°46' W 095°05'0 0.0
2015-Aug-23 11:23N 29°46' W 095°05'0 0.0
2015-Aug-23 09:13N 29°46' W 095°05'0 0.0
2015-Aug-23 08:15N 29°46' W 095°05'0 0.0
2015-Aug-23 06:33N 29°46' W 095°05'0 0.1
2015-Aug-23 05:32N 29°46' W 095°05'4 4.2
2015-Aug-23 04:30N 29°43' W 095°01'4 4.4
2015-Aug-23 03:33N 29°40' W 094°58'5 5.4
2015-Aug-23 02:33N 29°35' W 094°56'  

Dump ship's entire track history